Time;durP1;ratioP1;P1;durP2;ratioP2;P2;SDS_P1;SDS_P2;PMS_P1;PMS_P2;Temp;Humidity;BMP_temperature;BMP_pressure;BME280_temperature;BME280_humidity;BME280_pressure;Samples;Min_cycle;Max_cycle;Signal;HPM_P1;HPM_P2
2023/09/05 00:02:24;;;;;;;12.35;9.50;;;14.60;99.90;;;;;;5042734;28;20115;-46
2023/09/05 00:04:54;;;;;;;10.52;9.30;;;14.60;99.90;;;;;;5043208;28;20403;-46
2023/09/05 00:07:19;;;;;;;9.98;9.07;;;14.60;99.90;;;;;;5025378;28;20045;-46
2023/09/05 00:09:45;;;;;;;11.63;10.43;;;14.50;99.90;;;;;;5043051;28;20130;-46
2023/09/05 00:12:11;;;;;;;10.05;9.15;;;14.50;99.90;;;;;;5043108;28;20061;-47
2023/09/05 00:14:36;;;;;;;12.18;10.20;;;14.50;99.90;;;;;;5043556;28;20037;-47
2023/09/05 00:17:03;;;;;;;11.15;9.20;;;14.50;99.90;;;;;;5043549;28;20045;-47
2023/09/05 00:19:28;;;;;;;12.60;10.27;;;14.50;99.90;;;;;;5043986;28;20040;-46
2023/09/05 00:21:54;;;;;;;10.43;9.38;;;14.40;99.90;;;;;;5028616;28;20114;-46
2023/09/05 00:24:33;;;;;;;10.43;9.40;;;14.40;99.90;;;;;;5047518;28;20434;-46
2023/09/05 00:27:01;;;;;;;11.27;10.15;;;14.40;99.90;;;;;;5047044;28;20064;-46
2023/09/05 00:29:27;;;;;;;11.05;9.85;;;14.40;99.90;;;;;;5028805;28;20057;-46
2023/09/05 00:31:59;;;;;;;12.18;10.48;;;14.40;99.90;;;;;;5046210;28;20045;-46
2023/09/05 00:34:30;;;;;;;11.25;10.15;;;14.40;99.90;;;;;;5028632;28;20060;-47
2023/09/05 00:36:56;;;;;;;11.30;10.30;;;14.40;99.90;;;;;;5012125;28;20481;-47
2023/09/05 00:39:21;;;;;;;12.15;10.85;;;14.40;99.90;;;;;;5046566;28;20052;-49
2023/09/05 00:41:47;;;;;;;10.95;9.95;;;14.40;99.90;;;;;;5046193;28;20041;-46
2023/09/05 00:44:14;;;;;;;11.52;10.38;;;14.40;99.90;;;;;;5046504;28;20094;-47
2023/09/05 00:46:42;;;;;;;12.52;10.07;;;14.30;99.90;;;;;;5021585;28;20049;-46
2023/09/05 00:49:10;;;;;;;11.60;10.40;;;14.30;99.90;;;;;;5046597;28;20098;-47
2023/09/05 00:51:37;;;;;;;11.50;10.30;;;14.30;99.90;;;;;;5027689;28;20084;-49
2023/09/05 00:54:04;;;;;;;11.07;9.25;;;14.30;99.90;;;;;;5028062;28;20055;-47
2023/09/05 00:56:30;;;;;;;10.65;9.65;;;14.30;99.90;;;;;;5028030;28;20053;-46
2023/09/05 00:58:56;;;;;;;10.15;8.95;;;14.30;99.90;;;;;;5028236;28;20059;-47
2023/09/05 01:01:22;;;;;;;10.48;9.48;;;14.30;99.90;;;;;;5046094;28;20111;-47
2023/09/05 01:03:48;;;;;;;11.48;10.32;;;14.30;99.90;;;;;;5046527;28;20033;-48
2023/09/05 01:06:22;;;;;;;11.27;10.25;;;14.30;99.90;;;;;;5027883;28;20549;-46
2023/09/05 01:08:59;;;;;;;12.55;11.30;;;14.30;99.90;;;;;;5011065;28;20052;-46
2023/09/05 01:11:26;;;;;;;11.13;10.00;;;14.40;99.90;;;;;;5027412;28;20118;-50
2023/09/05 01:13:52;;;;;;;12.00;10.90;;;14.40;99.90;;;;;;5046083;28;20483;-48
2023/09/05 01:16:17;;;;;;;12.15;11.05;;;14.40;99.90;;;;;;5025428;28;20033;-47
2023/09/05 01:18:44;;;;;;;12.05;10.77;;;14.40;99.90;;;;;;5045411;28;20037;-46
2023/09/05 01:21:21;;;;;;;11.23;10.13;;;14.40;99.90;;;;;;5027027;28;20052;-49
2023/09/05 01:23:58;;;;;;;12.00;10.80;;;14.40;99.90;;;;;;5046008;28;20179;-47
2023/09/05 01:26:24;;;;;;;11.85;10.13;;;14.40;99.90;;;;;;5027683;28;20688;-45
2023/09/05 01:28:52;;;;;;;13.38;11.70;;;14.40;99.90;;;;;;5045367;28;20155;-46
2023/09/05 01:31:18;;;;;;;13.18;11.48;;;14.40;99.90;;;;;;5025704;28;20667;-48
2023/09/05 01:33:43;;;;;;;12.98;11.68;;;14.40;99.90;;;;;;5011176;28;20120;-49
2023/09/05 01:36:09;;;;;;;13.30;12.00;;;14.40;99.90;;;;;;5027952;28;20127;-48
2023/09/05 01:38:35;;;;;;;13.00;11.80;;;14.40;99.90;;;;;;5027374;28;20048;-47
2023/09/05 01:41:00;;;;;;;13.52;12.13;;;14.40;99.90;;;;;;5044621;28;20045;-48
2023/09/05 01:43:26;;;;;;;13.93;11.70;;;14.40;99.90;;;;;;5027110;28;20483;-50
2023/09/05 01:45:52;;;;;;;13.27;11.93;;;14.40;99.90;;;;;;5043275;28;20400;-47
2023/09/05 01:48:17;;;;;;;15.35;12.40;;;14.50;99.90;;;;;;5040565;28;20037;-46
2023/09/05 01:50:43;;;;;;;14.10;12.55;;;14.50;99.90;;;;;;5009866;28;20374;-47
2023/09/05 01:53:09;;;;;;;14.23;12.80;;;14.40;99.90;;;;;;5045158;28;20252;-47
2023/09/05 01:55:34;;;;;;;14.90;12.93;;;14.40;99.90;;;;;;5045891;28;20073;-49
2023/09/05 01:58:00;;;;;;;13.98;12.55;;;14.40;99.90;;;;;;5045325;28;20098;-46
2023/09/05 02:00:25;;;;;;;13.98;12.57;;;14.30;99.90;;;;;;5043720;28;20152;-47
2023/09/05 02:02:51;;;;;;;14.60;13.20;;;14.30;99.90;;;;;;5044571;28;21041;-47
2023/09/05 02:05:17;;;;;;;16.70;13.35;;;14.30;99.90;;;;;;5043658;28;20092;-47
2023/09/05 02:07:42;;;;;;;14.38;12.88;;;14.30;99.90;;;;;;5043794;28;20041;-50
2023/09/05 02:10:08;;;;;;;17.13;13.32;;;14.30;99.90;;;;;;5025393;28;20049;-47
2023/09/05 02:12:35;;;;;;;14.02;12.55;;;14.30;99.90;;;;;;5026068;28;20095;-46
2023/09/05 02:15:02;;;;;;;13.63;12.38;;;14.20;99.90;;;;;;5044580;28;20172;-49
2023/09/05 02:17:31;;;;;;;14.63;13.20;;;14.20;99.90;;;;;;5044217;28;20523;-46
2023/09/05 02:19:57;;;;;;;14.27;12.88;;;14.20;99.90;;;;;;5044220;28;20052;-48
2023/09/05 02:22:23;;;;;;;14.52;13.25;;;14.20;99.90;;;;;;5043870;28;20040;-47
2023/09/05 02:24:49;;;;;;;15.23;13.63;;;14.10;99.90;;;;;;5026265;28;20496;-49
2023/09/05 02:27:15;;;;;;;17.02;14.80;;;14.10;99.90;;;;;;5043543;28;20098;-46
2023/09/05 02:29:40;;;;;;;16.05;14.25;;;14.10;99.90;;;;;;5026008;28;20041;-47
2023/09/05 02:32:06;;;;;;;15.52;13.73;;;14.10;99.90;;;;;;5043667;28;20090;-47
2023/09/05 02:34:31;;;;;;;15.48;13.98;;;14.10;99.90;;;;;;5044261;28;20040;-46
2023/09/05 02:36:57;;;;;;;15.07;13.38;;;14.10;99.90;;;;;;5044111;28;20033;-48
2023/09/05 02:39:23;;;;;;;15.07;13.38;;;14.10;99.90;;;;;;5043805;28;20435;-52
2023/09/05 02:41:48;;;;;;;14.68;13.27;;;14.10;99.90;;;;;;5043451;28;20580;-50
2023/09/05 02:44:14;;;;;;;15.10;13.60;;;14.10;99.90;;;;;;5043583;28;20116;-49
2023/09/05 02:46:40;;;;;;;15.32;13.75;;;14.10;99.90;;;;;;5036180;28;20041;-48
2023/09/05 02:49:06;;;;;;;15.27;13.75;;;14.10;99.90;;;;;;5025839;28;20115;-52
2023/09/05 02:51:32;;;;;;;14.43;13.00;;;14.10;99.90;;;;;;5025099;28;20053;-50
2023/09/05 02:53:59;;;;;;;15.93;14.30;;;14.10;99.90;;;;;;5044181;28;20045;-50
2023/09/05 02:56:25;;;;;;;15.32;13.93;;;14.10;99.90;;;;;;5043347;28;20049;-50
2023/09/05 02:58:50;;;;;;;15.70;14.20;;;14.10;99.90;;;;;;5043877;28;20037;-48
2023/09/05 03:01:16;;;;;;;17.55;14.73;;;14.10;99.90;;;;;;5042831;28;20035;-49
2023/09/05 03:03:42;;;;;;;14.90;13.40;;;14.10;99.90;;;;;;5026181;28;20155;-49
2023/09/05 03:06:15;;;;;;;15.75;14.25;;;14.10;99.90;;;;;;5043444;28;20045;-50
2023/09/05 03:08:47;;;;;;;15.48;13.98;;;14.20;99.90;;;;;;5043302;28;20372;-47
2023/09/05 03:11:17;;;;;;;14.63;13.13;;;14.20;99.90;;;;;;5042457;28;20072;-48
2023/09/05 03:13:43;;;;;;;15.13;13.55;;;14.10;99.90;;;;;;5025413;28;20483;-50
2023/09/05 03:16:09;;;;;;;15.98;13.82;;;14.10;99.90;;;;;;5043178;28;20581;-48
2023/09/05 03:18:35;;;;;;;15.15;13.55;;;14.20;99.90;;;;;;5025399;28;20041;-48
2023/09/05 03:21:00;;;;;;;16.25;14.40;;;14.20;99.90;;;;;;5042274;28;20927;-50
2023/09/05 03:23:26;;;;;;;15.25;13.75;;;14.20;99.90;;;;;;5043209;28;20124;-49
2023/09/05 03:25:52;;;;;;;14.82;13.30;;;14.20;99.90;;;;;;5043626;28;20071;-48
2023/09/05 03:28:18;;;;;;;15.05;13.57;;;14.20;99.90;;;;;;5025007;28;20112;-50
2023/09/05 03:30:44;;;;;;;15.88;14.18;;;14.20;99.90;;;;;;5042153;28;20037;-49
2023/09/05 03:33:10;;;;;;;15.68;14.18;;;14.10;99.90;;;;;;5043566;28;20048;-50
2023/09/05 03:35:36;;;;;;;15.50;13.75;;;14.10;99.90;;;;;;5043265;28;20051;-48
2023/09/05 03:38:02;;;;;;;14.95;13.25;;;14.10;99.90;;;;;;5043218;28;20076;-49
2023/09/05 03:40:28;;;;;;;14.80;13.38;;;14.10;99.90;;;;;;5024243;28;20079;-46
2023/09/05 03:42:54;;;;;;;16.48;13.85;;;14.10;99.90;;;;;;5008584;28;20044;-48
2023/09/05 03:45:20;;;;;;;14.77;13.18;;;14.10;99.90;;;;;;5024830;28;20036;-47
2023/09/05 03:47:46;;;;;;;15.15;13.60;;;14.00;99.90;;;;;;5042480;28;20037;-47
2023/09/05 03:50:13;;;;;;;16.60;14.60;;;14.10;99.90;;;;;;5023697;28;20533;-47
2023/09/05 03:52:39;;;;;;;16.02;14.45;;;14.10;99.90;;;;;;5043176;28;20499;-46
2023/09/05 03:55:06;;;;;;;14.38;12.85;;;14.00;99.90;;;;;;5026778;28;20060;-46
2023/09/05 03:57:31;;;;;;;15.20;13.70;;;14.00;99.90;;;;;;5046929;28;20498;-46
2023/09/05 03:59:57;;;;;;;15.23;13.80;;;14.00;99.90;;;;;;5046455;28;20044;-47
2023/09/05 04:02:22;;;;;;;16.13;13.90;;;13.90;99.90;;;;;;5047554;28;20045;-49
2023/09/05 04:04:48;;;;;;;15.80;13.07;;;13.80;99.90;;;;;;5011983;28;20392;-47
2023/09/05 04:07:13;;;;;;;13.82;12.43;;;13.80;99.90;;;;;;5045544;28;20143;-46
2023/09/05 04:09:39;;;;;;;14.63;12.50;;;13.70;99.90;;;;;;5028295;28;20115;-45
2023/09/05 04:12:05;;;;;;;14.75;13.45;;;13.60;99.90;;;;;;5045705;28;20506;-46
2023/09/05 04:14:31;;;;;;;15.40;13.98;;;13.60;99.90;;;;;;5011858;28;20136;-46
2023/09/05 04:16:56;;;;;;;15.25;13.95;;;13.60;99.90;;;;;;5028497;28;20047;-46
2023/09/05 04:19:22;;;;;;;15.15;13.70;;;13.60;99.90;;;;;;5031770;28;20049;-46
2023/09/05 04:21:47;;;;;;;14.80;13.32;;;13.60;99.90;;;;;;5027920;28;20132;-47
2023/09/05 04:24:13;;;;;;;15.10;13.68;;;13.60;99.90;;;;;;5046566;28;20430;-47
2023/09/05 04:26:39;;;;;;;16.63;14.25;;;13.60;99.90;;;;;;5046577;28;20033;-46
2023/09/05 04:29:05;;;;;;;14.55;13.20;;;13.60;99.90;;;;;;5028267;28;20048;-46
2023/09/05 04:31:31;;;;;;;15.65;14.05;;;13.70;99.90;;;;;;5045637;28;20051;-47
2023/09/05 04:33:56;;;;;;;16.45;14.63;;;13.70;99.90;;;;;;5028419;28;20040;-49
2023/09/05 04:36:26;;;;;;;15.40;13.75;;;13.70;99.90;;;;;;5046307;28;20047;-46
2023/09/05 04:38:51;;;;;;;15.60;14.05;;;13.70;99.90;;;;;;5046161;28;20069;-46
2023/09/05 04:41:19;;;;;;;16.52;14.40;;;13.70;99.90;;;;;;5045342;28;20167;-46
2023/09/05 04:43:44;;;;;;;15.35;13.98;;;13.70;99.90;;;;;;5046185;28;20517;-46
2023/09/05 04:46:10;;;;;;;14.88;13.48;;;13.80;99.90;;;;;;5024766;28;20045;-46
2023/09/05 04:48:36;;;;;;;15.50;14.00;;;13.80;99.90;;;;;;5043058;28;20063;-46
2023/09/05 04:51:03;;;;;;;14.38;12.95;;;13.80;99.90;;;;;;5045296;28;20048;-46
2023/09/05 04:53:32;;;;;;;14.68;13.30;;;13.80;99.90;;;;;;5046248;28;20193;-47
2023/09/05 04:56:00;;;;;;;15.45;13.95;;;13.80;99.90;;;;;;5046215;28;20523;-45
2023/09/05 04:58:29;;;;;;;15.13;13.50;;;13.80;99.90;;;;;;5045752;28;20080;-46
2023/09/05 05:01:02;;;;;;;15.88;14.30;;;13.90;99.90;;;;;;5044962;28;20048;-46
2023/09/05 05:03:34;;;;;;;16.05;14.45;;;13.90;99.90;;;;;;5045573;28;20048;-45
2023/09/05 05:06:00;;;;;;;14.88;13.38;;;14.00;99.90;;;;;;5045673;28;20033;-46
2023/09/05 05:08:26;;;;;;;15.80;14.35;;;14.00;99.90;;;;;;5045737;28;20045;-46
2023/09/05 05:10:51;;;;;;;15.70;13.85;;;14.00;99.90;;;;;;5027314;28;20057;-45
2023/09/05 05:13:19;;;;;;;14.70;13.15;;;14.10;99.90;;;;;;5045227;28;20053;-47
2023/09/05 05:15:46;;;;;;;14.80;13.30;;;14.10;99.90;;;;;;5028192;28;20048;-45
2023/09/05 05:18:12;;;;;;;15.10;13.65;;;14.20;99.90;;;;;;5044288;28;20052;-47
2023/09/05 05:20:38;;;;;;;14.27;13.00;;;14.20;99.90;;;;;;5011035;28;20355;-49
2023/09/05 05:23:04;;;;;;;16.42;14.20;;;14.30;99.90;;;;;;5046095;28;20495;-48
2023/09/05 05:25:30;;;;;;;14.55;12.93;;;14.30;99.90;;;;;;5027637;28;20049;-47
2023/09/05 05:27:55;;;;;;;14.68;12.82;;;14.30;99.90;;;;;;5011496;28;20037;-46
2023/09/05 05:30:21;;;;;;;15.32;13.02;;;14.40;99.90;;;;;;5045061;28;20080;-47
2023/09/05 05:32:47;;;;;;;14.65;13.13;;;14.50;99.90;;;;;;5027631;28;20412;-46
2023/09/05 05:35:13;;;;;;;14.85;13.52;;;14.60;99.90;;;;;;5045558;28;20465;-49
2023/09/05 05:37:39;;;;;;;14.25;12.80;;;15.10;99.90;;;;;;5045811;28;20139;-49
2023/09/05 05:40:05;;;;;;;13.52;12.23;;;15.80;99.90;;;;;;5026904;28;20137;-48
2023/09/05 05:42:30;;;;;;;14.60;12.27;;;16.10;99.90;;;;;;5045982;28;20511;-47
2023/09/05 05:44:56;;;;;;;13.18;11.90;;;16.50;99.90;;;;;;5010690;28;20057;-47
2023/09/05 05:47:22;;;;;;;12.98;11.70;;;17.40;99.90;;;;;;5027102;28;20102;-48
2023/09/05 05:49:48;;;;;;;12.35;11.05;;;18.50;99.90;;;;;;5044642;28;20503;-48
2023/09/05 05:52:14;;;;;;;11.02;9.93;;;19.60;99.90;;;;;;5045406;28;20167;-48
2023/09/05 05:54:39;;;;;;;11.40;10.30;;;20.50;99.90;;;;;;5045692;28;20041;-47
2023/09/05 05:57:05;;;;;;;11.02;10.02;;;21.10;99.90;;;;;;5045460;28;20515;-49
2023/09/05 05:59:31;;;;;;;11.48;10.30;;;22.00;99.90;;;;;;5045354;28;20041;-48
2023/09/05 06:01:57;;;;;;;10.80;9.75;;;22.70;99.90;;;;;;5025988;28;20060;-51
2023/09/05 06:04:23;;;;;;;10.60;9.52;;;23.30;99.90;;;;;;5027096;28;20056;-48
2023/09/05 06:06:49;;;;;;;11.00;9.55;;;23.90;99.90;;;;;;5010990;28;20047;-50
2023/09/05 06:09:18;;;;;;;16.15;10.25;;;24.60;99.90;;;;;;5044773;28;20403;-49
2023/09/05 06:11:44;;;;;;;11.30;8.82;;;25.40;99.90;;;;;;5031322;28;20098;-48
2023/09/05 06:14:10;;;;;;;9.27;8.57;;;26.10;99.90;;;;;;5044947;28;20404;-48
2023/09/05 06:16:36;;;;;;;9.73;8.82;;;26.60;99.90;;;;;;5027993;28;20044;-48
2023/09/05 06:19:01;;;;;;;8.93;8.13;;;26.80;98.80;;;;;;5044501;28;20040;-48
2023/09/05 06:21:27;;;;;;;11.55;9.10;;;26.90;98.10;;;;;;5026203;28;20048;-49
2023/09/05 06:23:53;;;;;;;9.05;8.25;;;27.10;96.50;;;;;;5026998;28;20539;-50
2023/09/05 06:26:18;;;;;;;8.98;8.02;;;27.40;97.10;;;;;;5045318;28;20032;-51
2023/09/05 06:28:44;;;;;;;10.13;9.05;;;27.30;96.90;;;;;;5044671;28;20048;-48
2023/09/05 06:31:09;;;;;;;8.63;7.88;;;27.70;96.50;;;;;;5025673;28;20124;-49
2023/09/05 06:33:35;;;;;;;8.32;7.50;;;28.20;95.80;;;;;;5044905;28;20072;-48
2023/09/05 06:36:07;;;;;;;9.13;8.35;;;28.50;95.20;;;;;;5044802;28;20040;-48
2023/09/05 06:38:33;;;;;;;;;;;28.80;94.00;;;;;;5045422;28;20048;-48
2023/09/05 06:41:06;;;;;;;11.55;8.07;;;28.90;93.00;;;;;;5026028;28;20295;-51
2023/09/05 06:43:32;;;;;;;8.65;7.45;;;29.40;93.90;;;;;;5043875;28;20041;-51
2023/09/05 06:46:05;;;;;;;8.85;7.90;;;29.50;93.60;;;;;;5041553;28;20126;-47
2023/09/05 06:48:31;;;;;;;8.50;7.70;;;29.50;93.10;;;;;;5040803;28;20144;-49
2023/09/05 06:50:58;;;;;;;8.85;7.85;;;29.70;93.10;;;;;;5043756;28;20570;-49
2023/09/05 06:53:25;;;;;;;8.10;7.40;;;30.00;92.90;;;;;;5026358;28;20044;-50
2023/09/05 06:55:51;;;;;;;8.32;7.53;;;30.20;92.00;;;;;;5026672;28;20139;-46
2023/09/05 06:58:18;;;;;;;7.57;6.90;;;30.50;91.90;;;;;;5025972;28;20088;-48
2023/09/05 07:00:44;;;;;;;7.00;6.32;;;30.80;91.70;;;;;;5025687;28;20714;-48
2023/09/05 07:03:10;;;;;;;7.97;7.18;;;30.90;91.30;;;;;;5025818;28;20045;-48
2023/09/05 07:05:42;;;;;;;8.10;7.20;;;30.90;91.00;;;;;;5044870;28;20029;-51
2023/09/05 07:08:09;;;;;;;7.40;6.78;;;30.80;90.40;;;;;;5026009;28;20046;-49
2023/09/05 07:10:36;;;;;;;9.35;7.43;;;30.10;91.00;;;;;;5043304;28;20142;-48
2023/09/05 07:13:01;;;;;;;7.97;7.25;;;29.20;91.50;;;;;;5044134;28;20084;-51
2023/09/05 07:15:27;;;;;;;7.68;7.07;;;28.10;92.90;;;;;;5044248;28;20037;-48
2023/09/05 07:17:53;;;;;;;7.25;6.65;;;27.60;93.50;;;;;;5043997;28;20036;-48
2023/09/05 07:20:18;;;;;;;7.97;7.28;;;27.10;94.30;;;;;;5043281;28;20048;-48
2023/09/05 07:22:44;;;;;;;7.20;6.57;;;26.70;94.70;;;;;;5026093;28;20646;-47
2023/09/05 07:25:09;;;;;;;9.25;6.47;;;26.40;95.30;;;;;;5043646;28;20043;-49
2023/09/05 07:27:35;;;;;;;6.40;5.60;;;26.30;95.80;;;;;;5026016;28;20040;-47
2023/09/05 07:30:00;;;;;;;7.15;6.43;;;25.90;95.90;;;;;;5024031;28;20068;-47
2023/09/05 07:32:26;;;;;;;7.53;6.85;;;25.60;96.40;;;;;;5025323;28;20049;-51
2023/09/05 07:34:52;;;;;;;9.07;6.20;;;25.30;96.70;;;;;;5044086;28;20048;-51
2023/09/05 07:37:18;;;;;;;6.72;6.13;;;25.00;96.90;;;;;;5043278;28;20049;-49
2023/09/05 07:39:45;;;;;;;6.13;5.63;;;24.80;97.50;;;;;;5042636;28;20045;-50
2023/09/05 07:42:10;;;;;;;6.50;5.65;;;24.70;97.90;;;;;;5043175;28;20881;-47
2023/09/05 07:44:36;;;;;;;6.57;5.97;;;24.60;98.20;;;;;;5043465;28;20152;-48
2023/09/05 07:47:02;;;;;;;6.50;5.85;;;24.60;98.20;;;;;;5035545;28;20033;-48
2023/09/05 07:49:27;;;;;;;8.10;6.43;;;24.60;98.50;;;;;;5024998;28;20458;-50
2023/09/05 07:51:57;;;;;;;7.15;5.75;;;24.50;98.70;;;;;;5024997;28;20048;-47
2023/09/05 07:54:25;;;;;;;6.85;6.00;;;24.50;98.90;;;;;;5043265;28;20037;-49
2023/09/05 07:56:51;;;;;;;6.72;5.25;;;24.50;99.50;;;;;;5043387;28;20044;-48
2023/09/05 07:59:17;;;;;;;6.45;5.20;;;24.50;99.90;;;;;;5043235;28;20523;-49
2023/09/05 08:01:42;;;;;;;5.32;4.82;;;24.50;99.50;;;;;;5042434;28;20044;-50
2023/09/05 08:04:08;;;;;;;6.15;5.28;;;24.50;99.90;;;;;;5043126;28;20123;-50
2023/09/05 08:06:34;;;;;;;7.43;5.07;;;24.60;99.90;;;;;;5043323;28;20069;-48
2023/09/05 08:09:01;;;;;;;6.72;5.80;;;24.60;99.90;;;;;;5042836;28;20572;-48
2023/09/05 08:11:26;;;;;;;6.28;5.03;;;24.70;99.90;;;;;;5024819;28;20037;-50
2023/09/05 08:13:52;;;;;;;8.40;5.90;;;24.70;99.90;;;;;;5025509;28;20045;-49
2023/09/05 08:16:18;;;;;;;7.00;5.70;;;24.70;99.90;;;;;;5025333;28;20120;-50
2023/09/05 08:18:44;;;;;;;7.80;5.60;;;24.80;99.90;;;;;;5026376;28;20095;-49
2023/09/05 08:21:09;;;;;;;7.00;5.00;;;24.80;99.90;;;;;;5042199;28;20037;-51
2023/09/05 08:23:35;;;;;;;5.63;5.10;;;24.80;99.90;;;;;;5024927;28;20060;-50
2023/09/05 08:26:00;;;;;;;6.43;5.45;;;24.80;99.90;;;;;;5043131;28;20068;-51
2023/09/05 08:28:32;;;;;;;5.32;4.65;;;24.80;99.90;;;;;;5043449;28;20041;-50
2023/09/05 08:31:02;;;;;;;5.18;4.20;;;24.70;99.90;;;;;;5042182;28;21006;-49
2023/09/05 08:33:31;;;;;;;4.25;3.85;;;24.70;99.90;;;;;;5024810;28;20048;-50
2023/09/05 08:35:57;;;;;;;5.90;4.40;;;24.60;99.90;;;;;;5042643;28;20045;-48
2023/09/05 08:38:23;;;;;;;4.72;4.10;;;24.60;99.90;;;;;;5043093;28;20420;-50
2023/09/05 08:40:48;;;;;;;4.15;3.75;;;24.70;99.90;;;;;;5025074;28;20120;-51
2023/09/05 08:43:16;;;;;;;5.95;4.93;;;24.70;99.90;;;;;;5046630;28;20480;-51
2023/09/05 08:45:45;;;;;;;7.07;4.03;;;24.70;99.90;;;;;;5027525;28;20162;-51
2023/09/05 08:48:11;;;;;;;4.47;4.07;;;24.90;99.90;;;;;;5040491;28;20037;-52
2023/09/05 08:50:39;;;;;;;7.75;4.00;;;25.00;99.90;;;;;;5027652;28;20127;-50
2023/09/05 08:53:12;;;;;;;7.63;4.20;;;25.10;99.90;;;;;;5028278;28;20592;-50
2023/09/05 08:55:40;;;;;;;5.30;4.38;;;25.20;99.90;;;;;;5028639;28;20097;-51
2023/09/05 08:58:10;;;;;;;5.15;4.43;;;25.30;99.90;;;;;;5046425;28;20048;-48
2023/09/05 09:00:36;;;;;;;5.88;3.20;;;25.30;99.90;;;;;;5045713;28;20045;-48
2023/09/05 09:03:05;;;;;;;5.82;3.38;;;25.40;99.90;;;;;;5046072;28;20447;-50
2023/09/05 09:05:31;;;;;;;4.35;3.28;;;25.40;99.90;;;;;;5046243;28;20048;-50
2023/09/05 09:07:56;;;;;;;4.13;3.50;;;25.60;99.90;;;;;;5046440;28;20048;-50
2023/09/05 09:10:23;;;;;;;4.10;3.70;;;25.50;99.90;;;;;;5027398;28;20436;-51
2023/09/05 09:12:59;;;;;;;4.47;3.47;;;25.50;99.90;;;;;;5046292;28;20622;-49
2023/09/05 09:15:26;;;;;;;5.13;3.70;;;25.50;99.90;;;;;;5046201;28;20041;-51
2023/09/05 09:17:53;;;;;;;4.30;2.83;;;25.60;99.90;;;;;;5046102;28;20044;-50
2023/09/05 09:20:19;;;;;;;4.43;3.38;;;25.60;99.90;;;;;;5045412;28;20037;-50
2023/09/05 09:22:45;;;;;;;4.30;3.30;;;25.80;99.90;;;;;;5045873;28;20044;-50
2023/09/05 09:25:22;;;;;;;5.07;3.10;;;25.90;99.90;;;;;;5046022;28;20395;-51
2023/09/05 09:27:57;;;;;;;4.03;2.63;;;26.00;99.90;;;;;;5045816;28;20045;-50
2023/09/05 09:30:24;;;;;;;4.45;2.78;;;26.20;99.90;;;;;;5045241;28;20045;-48
2023/09/05 09:32:51;;;;;;;3.90;2.83;;;26.20;99.90;;;;;;5045940;28;20416;-51
2023/09/05 09:35:17;;;;;;;3.95;2.80;;;26.40;99.30;;;;;;5010809;28;20044;-50
2023/09/05 09:37:48;;;;;;;3.67;2.88;;;26.40;99.10;;;;;;5045767;28;20114;-48
2023/09/05 09:40:18;;;;;;;4.50;2.40;;;26.50;99.20;;;;;;5044569;28;20086;-49
2023/09/05 09:42:48;;;;;;;3.17;2.35;;;26.50;98.30;;;;;;5045356;28;20117;-49
2023/09/05 09:45:16;;;;;;;4.90;2.85;;;26.50;98.20;;;;;;5045288;28;20107;-49
2023/09/05 09:47:48;;;;;;;4.15;2.65;;;26.60;96.40;;;;;;5038808;28;20037;-50
2023/09/05 09:50:16;;;;;;;4.05;3.17;;;26.70;96.90;;;;;;5044730;28;20060;-51
2023/09/05 09:52:44;;;;;;;4.90;2.90;;;26.70;96.90;;;;;;5044884;28;20051;-48
2023/09/05 09:55:16;;;;;;;4.93;2.72;;;26.80;96.50;;;;;;5027454;28;20037;-52
2023/09/05 09:58:03;;;;;;;4.20;2.40;;;26.90;96.70;;;;;;5045981;28;20134;-48
2023/09/05 10:00:32;;;;;;;4.10;2.63;;;27.00;97.30;;;;;;5044900;28;20077;-49
2023/09/05 10:03:00;;;;;;;2.80;2.13;;;27.10;97.00;;;;;;5045581;28;20197;-48
2023/09/05 10:05:26;;;;;;;3.40;2.90;;;27.20;96.90;;;;;;5027209;28;20407;-51
2023/09/05 10:07:54;;;;;;;3.55;2.60;;;27.30;96.50;;;;;;5010803;28;20562;-49
2023/09/05 10:10:20;;;;;;;5.05;2.38;;;27.30;96.20;;;;;;5026222;28;20080;-50
2023/09/05 10:12:46;;;;;;;4.32;2.70;;;27.50;96.70;;;;;;5045369;28;20090;-51
2023/09/05 10:15:13;;;;;;;2.80;2.30;;;27.50;97.00;;;;;;5045367;28;20108;-51
2023/09/05 10:17:41;;;;;;;3.88;2.33;;;27.70;97.00;;;;;;5045299;28;20520;-48
2023/09/05 10:20:08;;;;;;;3.22;2.50;;;27.80;96.40;;;;;;5026079;28;20049;-48
2023/09/05 10:22:39;;;;;;;3.72;2.80;;;27.80;95.80;;;;;;5027121;28;20094;-51
2023/09/05 10:25:07;;;;;;;4.55;2.70;;;27.90;95.60;;;;;;5045115;28;20073;-50
2023/09/05 10:27:32;;;;;;;2.88;2.38;;;27.80;95.20;;;;;;5044818;28;20515;-50
2023/09/05 10:29:59;;;;;;;2.55;2.25;;;27.90;94.50;;;;;;5026545;28;20113;-51
2023/09/05 10:32:25;;;;;;;3.75;2.83;;;27.90;94.90;;;;;;5010321;28;20055;-51
2023/09/05 10:34:51;;;;;;;3.20;2.20;;;27.90;94.50;;;;;;5044805;28;20041;-49
2023/09/05 10:37:22;;;;;;;4.85;2.60;;;27.90;95.50;;;;;;5026446;28;20063;-49
2023/09/05 10:39:49;;;;;;;3.28;2.28;;;27.90;96.20;;;;;;5044300;28;20040;-49
2023/09/05 10:42:16;;;;;;;4.85;3.00;;;27.90;96.20;;;;;;5044490;28;20076;-51
2023/09/05 10:44:44;;;;;;;3.70;2.55;;;27.90;96.60;;;;;;5044669;28;20037;-49
2023/09/05 10:47:29;;;;;;;3.97;2.35;;;28.00;96.40;;;;;;5028962;28;20186;-50
2023/09/05 10:49:58;;;;;;;4.10;2.80;;;28.10;95.60;;;;;;5043879;28;20519;-50
2023/09/05 10:52:27;;;;;;;4.85;2.88;;;28.00;96.10;;;;;;5044197;28;20578;-51
2023/09/05 10:54:53;;;;;;;3.40;2.75;;;28.10;95.70;;;;;;5044472;28;20059;-50
2023/09/05 10:57:40;;;;;;;4.25;2.50;;;28.10;96.00;;;;;;5044385;28;20064;-50
2023/09/05 11:00:15;;;;;;;2.67;2.40;;;28.10;95.40;;;;;;5025414;28;20049;-49
2023/09/05 11:02:45;;;;;;;4.03;2.45;;;28.10;95.60;;;;;;5044398;28;20036;-48
2023/09/05 11:05:12;;;;;;;2.70;2.35;;;28.10;94.70;;;;;;5026048;28;20049;-49
2023/09/05 11:07:42;;;;;;;3.70;2.67;;;28.10;94.50;;;;;;5025761;28;20152;-51
2023/09/05 11:10:11;;;;;;;2.88;2.40;;;28.10;94.70;;;;;;5024680;28;20060;-51
2023/09/05 11:12:38;;;;;;;3.47;2.25;;;28.10;94.90;;;;;;5044229;28;20048;-47
2023/09/05 11:15:05;;;;;;;5.82;2.17;;;28.20;95.30;;;;;;5044064;28;20110;-50
2023/09/05 11:17:31;;;;;;;4.30;2.58;;;28.20;95.70;;;;;;5043707;28;20099;-51
2023/09/05 11:19:57;;;;;;;3.67;2.50;;;28.20;95.70;;;;;;5043091;28;20045;-49
2023/09/05 11:22:25;;;;;;;3.40;2.40;;;28.30;95.00;;;;;;5043752;28;20534;-50
2023/09/05 11:24:53;;;;;;;2.80;2.30;;;28.30;95.40;;;;;;5025865;28;20041;-51
2023/09/05 11:27:29;;;;;;;3.58;2.40;;;28.30;95.80;;;;;;5026131;28;20041;-49
2023/09/05 11:29:58;;;;;;;4.80;2.25;;;28.20;95.70;;;;;;5043196;28;20191;-49
2023/09/05 11:32:35;;;;;;;2.95;2.33;;;28.20;96.00;;;;;;5043730;28;20067;-50
2023/09/05 11:35:03;;;;;;;3.55;2.35;;;28.20;95.80;;;;;;5043711;28;20044;-47
2023/09/05 11:37:30;;;;;;;2.53;1.90;;;28.30;95.30;;;;;;5025524;28;20053;-48
2023/09/05 11:40:07;;;;;;;3.70;2.30;;;28.40;94.60;;;;;;5042812;28;20555;-49
2023/09/05 11:42:33;;;;;;;3.20;1.95;;;28.30;95.00;;;;;;5034808;28;20033;-52
2023/09/05 11:44:59;;;;;;;3.30;2.40;;;28.30;95.00;;;;;;5043723;28;20053;-51
2023/09/05 11:47:28;;;;;;;3.17;2.30;;;28.40;94.70;;;;;;5019824;28;20196;-51
2023/09/05 11:49:55;;;;;;;3.90;2.30;;;28.30;94.90;;;;;;5025095;28;20052;-49
2023/09/05 11:52:23;;;;;;;3.53;2.10;;;28.40;95.60;;;;;;5043709;28;20048;-49
2023/09/05 11:54:49;;;;;;;5.22;2.60;;;28.50;95.50;;;;;;5043412;28;20491;-51
2023/09/05 11:57:18;;;;;;;3.42;2.40;;;28.40;95.80;;;;;;5043661;28;20040;-52
2023/09/05 11:59:44;;;;;;;5.03;2.25;;;28.40;94.80;;;;;;5043143;28;20049;-51
2023/09/05 12:02:15;;;;;;;2.83;2.22;;;28.40;94.50;;;;;;5043994;28;20033;-48
2023/09/05 12:04:41;;;;;;;2.58;2.15;;;28.40;94.00;;;;;;5043451;28;20043;-49
2023/09/05 12:07:08;;;;;;;2.58;1.85;;;28.40;95.30;;;;;;5044060;28;20566;-51
2023/09/05 12:09:34;;;;;;;3.25;1.92;;;28.40;95.40;;;;;;5042315;28;20088;-51
2023/09/05 12:12:10;;;;;;;2.45;2.00;;;28.40;95.70;;;;;;5043881;28;20134;-52
2023/09/05 12:14:52;;;;;;;2.00;1.80;;;28.40;94.50;;;;;;5043266;28;20055;-50
2023/09/05 12:17:19;;;;;;;2.95;2.03;;;28.40;94.40;;;;;;5047099;28;20132;-47
2023/09/05 12:19:47;;;;;;;2.30;2.10;;;28.40;94.50;;;;;;5046535;28;20484;-49
2023/09/05 12:22:27;;;;;;;5.07;2.45;;;28.50;93.80;;;;;;5013126;28;20132;-49
2023/09/05 12:25:07;;;;;;;4.60;1.90;;;28.50;94.70;;;;;;5035629;28;20049;-50
2023/09/05 12:27:32;;;;;;;5.28;2.40;;;28.50;95.50;;;;;;5029348;28;20110;-51
2023/09/05 12:29:58;;;;;;;5.50;2.28;;;28.50;95.70;;;;;;5046543;28;20451;-49
2023/09/05 12:32:26;;;;;;;4.35;2.38;;;28.50;95.60;;;;;;5047147;28;20044;-51
2023/09/05 12:34:55;;;;;;;3.70;2.00;;;28.50;95.40;;;;;;5047463;28;20527;-51
2023/09/05 12:37:21;;;;;;;5.03;2.30;;;28.50;96.50;;;;;;5047155;28;20047;-48
2023/09/05 12:39:47;;;;;;;3.35;2.80;;;28.50;96.10;;;;;;5028147;28;20057;-48